createdAt,value
2022-12-08T00:01:25.037Z,7.43
2022-12-08T00:03:52.876Z,6.73
2022-12-08T00:06:58.933Z,7.87
2022-12-08T00:09:39.776Z,8.50
2022-12-08T00:12:17.891Z,7.40
2022-12-08T00:14:47.190Z,7.70
2022-12-08T00:17:16.440Z,7.73
2022-12-08T00:19:44.284Z,7.73
2022-12-08T00:22:13.316Z,8.00
2022-12-08T00:24:45.515Z,7.87
2022-12-08T00:27:15.386Z,7.83
2022-12-08T00:29:44.681Z,7.77
2022-12-08T00:32:11.481Z,7.70
2022-12-08T00:34:38.174Z,7.47
2022-12-08T00:37:04.956Z,8.30
2022-12-08T00:39:31.749Z,8.17
2022-12-08T00:42:13.641Z,8.17
2022-12-08T00:44:45.120Z,7.60
2022-12-08T00:47:13.782Z,7.23
2022-12-08T00:49:41.075Z,6.87
2022-12-08T00:52:08.434Z,6.57
2022-12-08T00:54:35.470Z,6.47
2022-12-08T00:57:02.299Z,5.70
2022-12-08T00:59:29.050Z,5.70
2022-12-08T01:01:55.875Z,5.90
2022-12-08T01:04:24.047Z,5.87
2022-12-08T01:06:51.532Z,5.90
2022-12-08T01:09:19.150Z,5.77
2022-12-08T01:11:46.642Z,5.63
2022-12-08T01:14:13.647Z,5.67
2022-12-08T01:16:41.628Z,5.00
2022-12-08T01:19:12.201Z,5.60
2022-12-08T01:21:39.935Z,6.50
2022-12-08T01:24:07.271Z,6.63
2022-12-08T01:26:34.084Z,6.53
2022-12-08T01:29:01.844Z,5.97
2022-12-08T01:31:28.654Z,6.70
2022-12-08T01:33:55.478Z,5.90
2022-12-08T01:36:29.209Z,6.10
2022-12-08T01:38:59.138Z,6.10
2022-12-08T01:41:30.950Z,5.83
2022-12-08T01:44:08.374Z,6.30
2022-12-08T01:46:38.293Z,6.10
2022-12-08T01:49:19.644Z,6.07
2022-12-08T01:52:26.738Z,6.17
2022-12-08T01:55:07.051Z,5.93
2022-12-08T01:57:43.036Z,6.07
2022-12-08T02:00:13.442Z,6.47
2022-12-08T02:02:51.971Z,7.23
2022-12-08T02:05:22.098Z,6.77
2022-12-08T02:07:50.168Z,6.70
2022-12-08T02:10:23.223Z,6.80
2022-12-08T02:12:53.862Z,6.53
2022-12-08T02:15:31.836Z,6.80
2022-12-08T02:18:26.700Z,6.40
2022-12-08T02:21:39.484Z,6.57
2022-12-08T02:24:24.992Z,6.33
2022-12-08T02:27:22.505Z,6.37
2022-12-08T02:29:52.002Z,5.90
2022-12-08T02:32:27.271Z,6.73
2022-12-08T02:35:10.772Z,6.67
2022-12-08T02:38:03.265Z,5.33
2022-12-08T02:40:39.649Z,6.47
2022-12-08T02:43:17.491Z,6.97
2022-12-08T02:45:51.110Z,5.80
2022-12-08T02:48:18.005Z,6.37
2022-12-08T02:50:44.635Z,6.50
2022-12-08T02:55:42.966Z,6.57
2022-12-08T02:58:24.019Z,6.20
2022-12-08T03:01:12.381Z,6.47
2022-12-08T03:04:06.087Z,6.77
2022-12-08T03:06:42.025Z,8.23
2022-12-08T03:09:24.676Z,6.90
2022-12-08T03:12:11.309Z,7.13
2022-12-08T03:14:44.441Z,7.80
2022-12-08T03:17:12.877Z,8.20
2022-12-08T03:19:43.229Z,7.77
2022-12-08T03:22:12.256Z,9.10
2022-12-08T03:24:43.240Z,8.90
2022-12-08T03:27:20.519Z,8.60
2022-12-08T03:29:50.821Z,8.20
2022-12-08T03:32:47.607Z,8.73
2022-12-08T03:35:20.294Z,8.70
2022-12-08T03:37:47.171Z,9.03
2022-12-08T03:40:18.795Z,8.60
2022-12-08T03:42:45.509Z,9.00
2022-12-08T03:45:12.357Z,8.97
2022-12-08T03:47:39.106Z,8.87
2022-12-08T03:50:06.830Z,9.10
2022-12-08T03:52:33.621Z,9.30
2022-12-08T03:55:00.347Z,9.63
2022-12-08T03:57:27.011Z,9.43
2022-12-08T03:59:53.716Z,9.47
2022-12-08T04:02:20.480Z,10.33
2022-12-08T04:04:47.282Z,10.40
2022-12-08T04:07:14.319Z,11.07
2022-12-08T04:09:41.662Z,11.13
2022-12-08T04:12:09.172Z,10.93
2022-12-08T04:14:35.942Z,11.30
2022-12-08T04:17:02.704Z,11.20
2022-12-08T04:19:29.441Z,10.67
2022-12-08T04:21:56.174Z,11.77
2022-12-08T04:24:22.833Z,10.53
2022-12-08T04:26:50.557Z,11.60
2022-12-08T04:29:17.285Z,10.53
2022-12-08T04:31:44.406Z,12.03
2022-12-08T04:34:11.086Z,11.43
2022-12-08T04:36:37.911Z,10.67
2022-12-08T04:39:04.606Z,12.23
2022-12-08T04:41:31.309Z,11.27
2022-12-08T04:43:57.985Z,12.37
2022-12-08T04:46:24.678Z,12.33
2022-12-08T04:48:51.331Z,12.37
2022-12-08T04:51:20.685Z,11.80
2022-12-08T04:53:48.043Z,11.90
2022-12-08T04:56:19.319Z,11.20
2022-12-08T04:58:46.731Z,12.23
2022-12-08T05:01:13.668Z,11.80
2022-12-08T05:03:40.545Z,11.80
2022-12-08T05:06:07.414Z,13.67
2022-12-08T05:08:34.218Z,12.73
2022-12-08T05:11:09.466Z,11.93
2022-12-08T05:13:36.341Z,11.67
2022-12-08T05:16:12.654Z,12.83
2022-12-08T05:18:41.235Z,12.57
2022-12-08T05:21:09.118Z,12.53
2022-12-08T05:23:36.511Z,12.63
2022-12-08T05:26:03.462Z,12.93
2022-12-08T05:28:41.273Z,12.80
2022-12-08T05:31:10.399Z,13.90
2022-12-08T05:33:37.093Z,12.90
2022-12-08T05:36:04.004Z,13.67
2022-12-08T05:38:30.799Z,13.57
2022-12-08T05:40:57.710Z,13.93
2022-12-08T05:43:24.491Z,14.63
2022-12-08T05:45:51.301Z,13.80
2022-12-08T05:48:17.999Z,13.07
2022-12-08T05:50:49.033Z,13.07
2022-12-08T05:53:17.614Z,14.10
2022-12-08T05:55:45.156Z,15.03
2022-12-08T05:58:19.172Z,14.90
2022-12-08T06:00:47.014Z,14.63
2022-12-08T06:03:15.680Z,15.77
2022-12-08T06:05:44.372Z,16.40
2022-12-08T06:08:12.095Z,14.17
2022-12-08T06:10:44.963Z,16.03
2022-12-08T06:13:12.875Z,14.33
2022-12-08T06:15:42.867Z,13.33
2022-12-08T06:18:11.209Z,14.13
2022-12-08T06:20:37.832Z,12.93
2022-12-08T06:23:04.469Z,12.40
2022-12-08T06:25:31.182Z,13.30
2022-12-08T06:28:07.366Z,13.17
2022-12-08T06:30:34.351Z,12.60
2022-12-08T06:33:01.085Z,13.83
2022-12-08T06:35:27.815Z,13.03
2022-12-08T06:37:54.516Z,12.60
2022-12-08T06:40:21.196Z,13.00
2022-12-08T06:42:47.886Z,13.03
2022-12-08T06:45:17.800Z,11.20
2022-12-08T06:47:44.869Z,12.50
2022-12-08T06:50:13.318Z,12.37
2022-12-08T06:52:51.707Z,12.93
2022-12-08T06:55:57.506Z,13.07
2022-12-08T06:58:13.651Z,11.70
2022-12-08T07:00:42.038Z,12.10
2022-12-08T07:03:11.423Z,12.37
2022-12-08T07:05:38.869Z,12.97
2022-12-08T07:08:08.357Z,12.23
2022-12-08T07:10:35.393Z,12.27
2022-12-08T07:13:02.206Z,12.90
2022-12-08T07:15:28.999Z,13.00
2022-12-08T07:17:59.895Z,12.53
2022-12-08T07:20:27.812Z,13.00
2022-12-08T07:22:54.948Z,13.10
2022-12-08T07:25:22.188Z,12.63
2022-12-08T07:27:51.238Z,13.33
2022-12-08T07:30:18.046Z,12.63
2022-12-08T07:32:45.304Z,12.17
2022-12-08T07:35:12.006Z,12.20
2022-12-08T07:37:39.129Z,13.27
2022-12-08T07:40:08.577Z,12.50
2022-12-08T07:42:35.521Z,12.77
2022-12-08T07:45:02.447Z,11.53
2022-12-08T07:47:29.251Z,11.00
2022-12-08T07:49:56.052Z,11.73
2022-12-08T07:52:23.380Z,12.17
2022-12-08T07:54:50.052Z,12.00
2022-12-08T07:57:17.044Z,11.13
2022-12-08T07:59:43.733Z,10.80
2022-12-08T08:02:24.857Z,11.67
2022-12-08T08:04:52.797Z,10.67
2022-12-08T08:07:19.533Z,11.43
2022-12-08T08:09:46.340Z,10.87
2022-12-08T08:15:01.623Z,9.93
2022-12-08T08:17:29.721Z,9.90
2022-12-08T08:19:57.219Z,9.33
2022-12-08T08:22:25.704Z,10.40
2022-12-08T08:24:53.556Z,9.10
2022-12-08T08:27:20.728Z,9.93
2022-12-08T08:29:47.582Z,9.67
2022-12-08T08:32:14.282Z,8.37
2022-12-08T08:34:41.051Z,9.60
2022-12-08T08:37:07.793Z,9.97
2022-12-08T08:39:34.576Z,10.00
2022-12-08T08:42:01.267Z,10.10
2022-12-08T08:44:28.103Z,9.17
2022-12-08T08:46:54.825Z,10.27
2022-12-08T08:49:21.557Z,10.40
2022-12-08T08:51:48.332Z,10.60
2022-12-08T08:54:15.448Z,10.30
2022-12-08T08:56:45.176Z,9.93
2022-12-08T08:59:12.074Z,9.53
2022-12-08T09:01:38.758Z,10.20
2022-12-08T09:04:05.581Z,9.63
2022-12-08T09:06:32.685Z,10.07
2022-12-08T09:08:59.505Z,10.10
2022-12-08T09:11:26.195Z,9.97
2022-12-08T09:13:54.615Z,10.07
2022-12-08T09:16:23.006Z,10.33
2022-12-08T09:18:50.178Z,11.43
2022-12-08T09:21:22.689Z,9.33
2022-12-08T09:23:50.892Z,9.80
2022-12-08T09:26:17.680Z,9.40
2022-12-08T09:28:46.538Z,9.37
2022-12-08T09:31:14.587Z,8.97
2022-12-08T09:33:42.059Z,9.30
2022-12-08T09:36:10.058Z,10.17
2022-12-08T09:38:37.879Z,10.27
2022-12-08T09:41:36.536Z,11.03
2022-12-08T09:44:46.272Z,9.97
2022-12-08T09:47:35.693Z,10.63
2022-12-08T09:50:37.037Z,10.37
2022-12-08T09:53:12.545Z,10.27
2022-12-08T09:55:59.000Z,11.33
2022-12-08T09:58:53.610Z,9.40
2022-12-08T10:01:32.428Z,8.90
2022-12-08T10:04:00.290Z,9.20
2022-12-08T10:06:55.579Z,9.17
2022-12-08T10:09:52.762Z,10.00
2022-12-08T10:12:33.971Z,9.23
2022-12-08T10:15:38.204Z,10.13
2022-12-08T10:18:16.961Z,8.83
2022-12-08T10:20:47.478Z,10.53
2022-12-08T10:23:34.224Z,11.10
2022-12-08T10:26:11.205Z,9.67
2022-12-08T10:28:44.418Z,10.50
2022-12-08T10:31:21.806Z,9.40
2022-12-08T10:33:58.706Z,10.23
2022-12-08T10:36:54.351Z,9.27
2022-12-08T10:39:39.824Z,10.67
2022-12-08T10:42:21.809Z,10.00
2022-12-08T10:45:00.666Z,10.57
2022-12-08T10:47:29.783Z,11.57
2022-12-08T10:50:34.642Z,10.33
2022-12-08T10:53:07.620Z,11.33
2022-12-08T10:56:03.614Z,10.50
2022-12-08T10:58:47.264Z,11.57
2022-12-08T11:01:26.597Z,10.20
2022-12-08T11:04:07.455Z,11.10
2022-12-08T11:06:40.084Z,10.80
2022-12-08T11:09:24.547Z,10.83
2022-12-08T11:12:00.380Z,11.03
2022-12-08T11:14:37.513Z,10.60
2022-12-08T11:17:10.444Z,11.43
2022-12-08T11:19:40.609Z,12.13
2022-12-08T11:22:32.265Z,10.97
2022-12-08T11:25:08.273Z,12.47
2022-12-08T11:27:42.047Z,10.97
2022-12-08T11:30:22.317Z,11.27
2022-12-08T11:32:56.024Z,11.93
2022-12-08T11:35:32.507Z,10.20
2022-12-08T11:38:21.185Z,10.53
2022-12-08T11:41:03.335Z,11.53
2022-12-08T11:44:19.014Z,12.37
2022-12-08T11:46:58.443Z,11.10
2022-12-08T11:49:42.129Z,12.23
2022-12-08T11:52:33.970Z,11.67
2022-12-08T11:55:25.465Z,10.53
2022-12-08T11:57:54.900Z,11.43
2022-12-08T12:00:21.671Z,11.50
2022-12-08T12:03:04.508Z,12.27
2022-12-08T12:06:53.763Z,13.97
2022-12-08T12:09:36.401Z,11.53
2022-12-08T12:12:44.100Z,11.73
2022-12-08T12:16:07.842Z,13.77
2022-12-08T12:18:56.442Z,14.33
2022-12-08T12:21:40.328Z,14.00
2022-12-08T12:24:26.032Z,12.23
2022-12-08T12:27:06.763Z,12.87
2022-12-08T12:29:38.172Z,13.03
2022-12-08T12:32:09.108Z,12.13
2022-12-08T12:34:46.285Z,12.27
2022-12-08T12:37:25.611Z,12.60
2022-12-08T12:39:52.118Z,12.77
2022-12-08T12:42:37.090Z,12.43
2022-12-08T12:45:19.904Z,9.60
2022-12-08T12:47:56.229Z,10.23
2022-12-08T12:50:36.976Z,12.20
2022-12-08T12:53:18.059Z,10.67
2022-12-08T12:55:58.452Z,8.90
2022-12-08T12:58:28.340Z,10.60
2022-12-08T13:01:37.652Z,8.37
2022-12-08T13:04:10.769Z,8.07
2022-12-08T13:06:43.320Z,7.30
2022-12-08T13:09:30.620Z,7.47
2022-12-08T13:12:08.489Z,8.37
2022-12-08T13:14:46.204Z,8.23
2022-12-08T13:17:20.958Z,8.23
2022-12-08T13:19:52.014Z,9.00
2022-12-08T13:22:54.170Z,9.03
2022-12-08T13:25:39.299Z,8.50
2022-12-08T13:28:20.850Z,7.70
2022-12-08T13:30:48.896Z,8.10
2022-12-08T13:33:32.650Z,7.57
2022-12-08T13:36:32.785Z,8.03
2022-12-08T13:39:01.295Z,7.77
2022-12-08T13:41:49.382Z,7.47
2022-12-08T13:47:33.868Z,8.10
2022-12-08T13:54:35.281Z,7.43
2022-12-08T13:59:34.392Z,7.80
2022-12-08T14:02:43.740Z,7.63
2022-12-08T14:05:23.598Z,8.20
2022-12-08T14:07:56.888Z,7.40
2022-12-08T14:10:30.297Z,7.47
2022-12-08T14:13:11.080Z,8.17
2022-12-08T14:15:40.019Z,7.07
2022-12-08T14:18:26.105Z,7.30
2022-12-08T14:21:20.933Z,7.77
2022-12-08T14:23:48.009Z,6.90
2022-12-08T14:26:14.777Z,7.63
2022-12-08T14:28:45.069Z,7.43
2022-12-08T14:31:14.758Z,8.50
2022-12-08T14:33:42.425Z,7.77
2022-12-08T14:36:10.256Z,7.60
2022-12-08T14:38:37.018Z,7.57
2022-12-08T14:41:11.519Z,7.90
2022-12-08T14:43:41.068Z,7.53
2022-12-08T14:46:22.969Z,7.60
2022-12-08T14:48:49.920Z,8.50
2022-12-08T14:51:24.209Z,7.57
2022-12-08T14:54:05.443Z,7.90
2022-12-08T14:56:50.268Z,8.17
2022-12-08T14:59:32.722Z,8.10
2022-12-08T15:02:24.373Z,8.20
2022-12-08T15:05:20.260Z,8.40
2022-12-08T15:08:00.165Z,8.00
2022-12-08T15:10:30.895Z,8.33
2022-12-08T15:13:22.313Z,9.33
2022-12-08T15:15:57.923Z,8.93
2022-12-08T15:19:00.569Z,9.57
2022-12-08T15:21:32.750Z,9.60
2022-12-08T15:23:59.419Z,10.27
2022-12-08T15:26:28.180Z,10.23
2022-12-08T15:28:55.745Z,10.67
2022-12-08T15:31:22.575Z,10.23
2022-12-08T15:33:49.372Z,10.87
2022-12-08T15:36:16.061Z,11.80
2022-12-08T15:38:43.552Z,11.40
2022-12-08T15:41:15.000Z,12.23
2022-12-08T15:43:42.397Z,13.37
2022-12-08T15:46:09.299Z,14.60
2022-12-08T15:48:37.688Z,12.27
2022-12-08T15:51:04.393Z,12.43
2022-12-08T15:53:31.104Z,12.37
2022-12-08T15:56:28.521Z,13.27
2022-12-08T15:58:54.691Z,13.33
2022-12-08T16:01:22.025Z,14.27
2022-12-08T16:09:36.520Z,15.50
2022-12-08T16:12:22.417Z,16.30
2022-12-08T16:17:37.057Z,13.93
2022-12-08T16:20:18.226Z,13.87
2022-12-08T16:23:19.339Z,13.80
2022-12-08T16:25:52.749Z,13.57
2022-12-08T16:28:52.189Z,14.87
2022-12-08T16:31:10.286Z,13.67
2022-12-08T16:33:40.557Z,13.23
2022-12-08T16:36:07.463Z,14.07
2022-12-08T16:38:36.052Z,14.40
2022-12-08T16:41:21.454Z,15.27
2022-12-08T16:43:49.067Z,15.10
2022-12-08T16:46:23.842Z,16.80
2022-12-08T16:48:50.709Z,16.40
2022-12-08T16:51:25.078Z,16.33
2022-12-08T16:53:56.792Z,16.03
2022-12-08T16:56:30.432Z,18.00
2022-12-08T16:58:59.031Z,18.33
2022-12-08T17:01:25.937Z,19.13
2022-12-08T17:04:22.459Z,17.37
2022-12-08T17:06:40.175Z,17.30
2022-12-08T17:09:06.928Z,14.77
2022-12-08T17:11:39.041Z,11.80
2022-12-08T17:14:06.099Z,13.47
2022-12-08T17:16:32.875Z,14.83
2022-12-08T17:18:59.615Z,15.33
2022-12-08T17:21:26.285Z,14.80
2022-12-08T17:23:52.990Z,15.10
2022-12-08T17:26:19.661Z,14.90
2022-12-08T17:29:01.938Z,15.33
2022-12-08T17:31:31.436Z,14.20
2022-12-08T17:34:10.999Z,15.07
2022-12-08T17:36:37.693Z,13.70
2022-12-08T17:39:05.518Z,13.13
2022-12-08T17:41:32.955Z,13.00
2022-12-08T17:43:59.596Z,12.10
2022-12-08T17:46:26.683Z,11.13
2022-12-08T17:48:53.568Z,12.00
2022-12-08T17:51:20.614Z,10.47
2022-12-08T17:53:47.323Z,10.77
2022-12-08T17:56:18.959Z,11.80
2022-12-08T17:58:51.081Z,10.97
2022-12-08T18:01:21.657Z,11.83
2022-12-08T18:03:48.497Z,10.97
2022-12-08T18:06:17.363Z,11.20
2022-12-08T18:08:44.232Z,11.30
2022-12-08T18:11:15.144Z,10.33
2022-12-08T18:13:41.977Z,10.80
2022-12-08T18:16:08.734Z,10.10
2022-12-08T18:18:35.512Z,11.07
2022-12-08T18:21:02.145Z,11.07
2022-12-08T18:23:28.962Z,12.00
2022-12-08T18:25:55.635Z,11.63
2022-12-08T18:28:23.672Z,11.57
2022-12-08T18:30:50.599Z,12.30
2022-12-08T18:33:17.419Z,11.87
2022-12-08T18:35:44.079Z,12.17
2022-12-08T18:38:10.812Z,9.77
2022-12-08T18:40:37.610Z,10.53
2022-12-08T18:43:04.406Z,10.77
2022-12-08T18:45:31.557Z,10.97
2022-12-08T18:47:58.267Z,10.43
2022-12-08T18:50:24.919Z,10.80
2022-12-08T18:52:51.697Z,10.80
2022-12-08T18:55:18.477Z,10.17
2022-12-08T18:57:46.250Z,11.30
2022-12-08T19:00:21.072Z,11.17
2022-12-08T19:02:47.866Z,11.20
2022-12-08T19:05:14.973Z,11.83
2022-12-08T19:07:42.836Z,12.77
2022-12-08T19:10:10.789Z,11.97
2022-12-08T19:12:37.853Z,11.77
2022-12-08T19:15:05.632Z,10.77
2022-12-08T19:17:32.787Z,11.60
2022-12-08T19:19:59.609Z,11.27
2022-12-08T19:22:27.104Z,11.60
2022-12-08T19:24:53.990Z,10.57
2022-12-08T19:27:20.854Z,12.93
2022-12-08T19:29:47.561Z,13.37
2022-12-08T19:32:14.386Z,12.87
2022-12-08T19:34:41.365Z,15.27
2022-12-08T19:37:10.283Z,12.33
2022-12-08T19:39:55.481Z,13.23
2022-12-08T19:42:40.788Z,13.17
2022-12-08T19:45:16.322Z,11.23
2022-12-08T19:47:44.180Z,13.17
2022-12-08T19:50:49.331Z,13.90
2022-12-08T19:53:16.165Z,14.63
2022-12-08T19:55:43.972Z,14.03
2022-12-08T19:58:11.299Z,16.17
2022-12-08T20:00:39.517Z,15.37
2022-12-08T20:03:06.836Z,14.80
2022-12-08T20:05:36.212Z,14.73
2022-12-08T20:08:03.347Z,14.37
2022-12-08T20:10:35.588Z,14.63
2022-12-08T20:13:21.379Z,14.63
2022-12-08T20:15:48.515Z,14.00
2022-12-08T20:18:16.076Z,12.70
2022-12-08T20:20:44.517Z,12.53
2022-12-08T20:23:11.743Z,13.50
2022-12-08T20:25:43.289Z,13.37
2022-12-08T20:28:10.196Z,12.97
2022-12-08T20:30:39.543Z,13.40
2022-12-08T20:33:06.395Z,15.53
2022-12-08T20:35:33.866Z,14.17
2022-12-08T20:38:00.626Z,15.53
2022-12-08T20:40:27.448Z,17.70
2022-12-08T20:42:54.295Z,18.50
2022-12-08T20:45:21.047Z,17.33
2022-12-08T20:47:47.798Z,16.27
2022-12-08T20:50:14.700Z,15.07
2022-12-08T20:52:41.789Z,15.23
2022-12-08T20:55:09.678Z,14.60
2022-12-08T20:57:36.698Z,25.63
2022-12-08T21:00:06.061Z,20.40
2022-12-08T21:02:33.256Z,17.23
2022-12-08T21:05:00.365Z,18.77
2022-12-08T21:07:27.503Z,18.80
2022-12-08T21:09:54.767Z,19.87
2022-12-08T21:12:21.599Z,20.07
2022-12-08T21:14:48.342Z,18.33
2022-12-08T21:17:15.505Z,19.27
2022-12-08T21:19:42.431Z,19.87
2022-12-08T21:22:09.280Z,18.77
2022-12-08T21:24:36.055Z,19.43
2022-12-08T21:27:02.926Z,19.23
2022-12-08T21:29:29.627Z,17.67
2022-12-08T21:31:58.784Z,18.70
2022-12-08T21:34:31.771Z,19.23
2022-12-08T21:36:58.774Z,15.60
2022-12-08T21:39:25.859Z,19.23
2022-12-08T21:42:12.081Z,18.47
2022-12-08T21:44:38.976Z,19.03
2022-12-08T21:47:06.054Z,19.30
2022-12-08T21:49:33.109Z,18.90
2022-12-08T21:52:00.300Z,15.87
2022-12-08T21:54:27.450Z,19.37
2022-12-08T21:56:54.412Z,20.37
2022-12-08T21:59:21.280Z,19.60
2022-12-08T22:01:48.477Z,23.17
2022-12-08T22:04:21.317Z,21.40
2022-12-08T22:06:48.777Z,23.00
2022-12-08T22:09:15.861Z,21.67
2022-12-08T22:11:43.192Z,20.53
2022-12-08T22:14:14.365Z,19.83
2022-12-08T22:16:43.054Z,19.20
2022-12-08T22:19:10.197Z,20.37
2022-12-08T22:21:38.248Z,19.93
2022-12-08T22:24:05.830Z,20.47
2022-12-08T22:26:33.079Z,19.50
2022-12-08T22:29:00.465Z,21.27
2022-12-08T22:31:27.891Z,20.33
2022-12-08T22:33:54.937Z,19.53
2022-12-08T22:36:26.929Z,19.63
2022-12-08T22:38:54.469Z,19.37
2022-12-08T22:41:22.265Z,18.50
2022-12-08T22:43:50.265Z,17.67
2022-12-08T22:46:22.724Z,19.33
2022-12-08T22:48:50.720Z,18.80
2022-12-08T22:51:18.223Z,16.67
2022-12-08T22:53:46.645Z,16.97
2022-12-08T22:56:15.536Z,16.33
2022-12-08T22:58:43.464Z,17.27
2022-12-08T23:01:24.596Z,23.57
2022-12-08T23:03:51.438Z,23.97
2022-12-08T23:06:18.555Z,20.10
2022-12-08T23:08:45.993Z,19.23
2022-12-08T23:11:12.940Z,19.97
2022-12-08T23:13:40.283Z,21.07
2022-12-08T23:16:09.183Z,20.03
2022-12-08T23:18:37.889Z,20.23
2022-12-08T23:21:11.579Z,19.33
2022-12-08T23:23:38.909Z,17.07
2022-12-08T23:26:22.008Z,16.73
2022-12-08T23:28:49.224Z,17.13
2022-12-08T23:31:16.861Z,18.13
2022-12-08T23:33:43.789Z,15.80
2022-12-08T23:36:11.858Z,17.07
2022-12-08T23:38:38.977Z,18.00
2022-12-08T23:41:08.211Z,18.60
2022-12-08T23:43:35.610Z,17.67
2022-12-08T23:46:03.590Z,18.50
2022-12-08T23:48:34.979Z,18.73
2022-12-08T23:51:02.054Z,19.10
2022-12-08T23:53:30.489Z,17.67
2022-12-08T23:56:07.132Z,17.00
2022-12-08T23:58:35.546Z,17.53
